Time;durP1;ratioP1;P1;durP2;ratioP2;P2;SDS_P1;SDS_P2;PMS_P1;PMS_P2;Temp;Humidity;BMP_temperature;BMP_pressure;BME280_temperature;BME280_humidity;BME280_pressure;Samples;Min_cycle;Max_cycle;Signal;HPM_P1;HPM_P2
2021/04/22 08:45:31;;;;;;;29.48;11.93;;;12.70;87.20;;;;;;12156023;27;20691;-70
2021/04/22 08:51:17;;;;;;;35.90;12.77;;;13.50;86.30;;;;;;12157261;27;20058;-70
2021/04/22 08:57:04;;;;;;;31.20;12.27;;;14.00;83.20;;;;;;12156412;27;20817;-69
2021/04/22 09:02:51;;;;;;;28.05;12.23;;;14.20;82.00;;;;;;12156808;28;20051;-69
2021/04/22 09:08:40;;;;;;;31.05;13.45;;;14.40;80.50;;;;;;12151189;28;20059;-75
2021/04/22 09:14:26;;;;;;;37.50;12.95;;;14.50;80.50;;;;;;12142717;28;20047;-73
2021/04/22 09:20:14;;;;;;;30.67;12.55;;;14.60;79.70;;;;;;12135788;28;20040;-71
2021/04/22 09:26:03;;;;;;;32.42;12.90;;;14.80;80.00;;;;;;12147608;27;20051;-73
2021/04/22 09:31:49;;;;;;;30.80;12.85;;;15.00;78.90;;;;;;12141234;28;20104;-74
2021/04/22 09:37:39;;;;;;;31.23;13.60;;;14.90;80.10;;;;;;12149294;27;20059;-74
2021/04/22 09:43:26;;;;;;;29.95;14.27;;;15.10;79.20;;;;;;12145475;28;20437;-74
2021/04/22 09:49:14;;;;;;;30.80;13.30;;;15.00;79.10;;;;;;12153570;28;20056;-74
2021/04/22 09:55:03;;;;;;;32.22;14.07;;;15.20;78.50;;;;;;12127306;28;20051;-75
2021/04/22 10:00:49;;;;;;;36.03;13.60;;;15.20;78.10;;;;;;12119861;28;20047;-76
2021/04/22 10:06:43;;;;;;;31.00;13.73;;;15.20;78.60;;;;;;12125931;28;20073;-74
2021/04/22 10:12:32;;;;;;;29.52;13.90;;;15.40;79.30;;;;;;12123093;28;20051;-75
2021/04/22 10:18:19;;;;;;;26.17;12.85;;;15.60;77.50;;;;;;12119986;28;20059;-75
2021/04/22 10:24:06;;;;;;;28.73;13.60;;;15.80;76.60;;;;;;12117789;28;20065;-76
2021/04/22 10:29:55;;;;;;;26.65;12.95;;;15.80;75.10;;;;;;12121756;28;20040;-76
2021/04/22 10:35:45;;;;;;;27.48;12.52;;;16.00;76.50;;;;;;12117659;28;20051;-77
2021/04/22 10:41:38;;;;;;;26.05;12.23;;;16.20;74.90;;;;;;12114777;28;20202;-77
2021/04/22 10:47:42;;;;;;;27.27;12.77;;;16.20;74.20;;;;;;12118585;28;20530;-77
2021/04/22 10:53:28;;;;;;;33.40;13.63;;;16.30;73.40;;;;;;12116481;28;20086;-76
2021/04/22 10:59:26;;;;;;;27.25;12.07;;;16.50;72.30;;;;;;12109993;28;20051;-76
2021/04/22 11:05:26;;;;;;;25.55;13.02;;;16.70;71.00;;;;;;12112796;28;20051;-76
2021/04/22 11:11:18;;;;;;;29.83;12.98;;;16.40;70.30;;;;;;12113724;28;20215;-77
2021/04/22 11:17:05;;;;;;;28.23;12.65;;;16.50;70.10;;;;;;12117301;28;20057;-77
2021/04/22 11:22:54;;;;;;;26.70;11.07;;;16.80;70.50;;;;;;12114087;28;20045;-77
2021/04/22 11:28:42;;;;;;;27.52;11.85;;;17.00;69.50;;;;;;12114035;28;20637;-76
2021/04/22 11:34:33;;;;;;;25.25;10.80;;;17.30;68.50;;;;;;12113635;28;20595;-76
2021/04/22 11:40:23;;;;;;;22.25;10.02;;;17.40;67.10;;;;;;12105763;28;20052;-75
2021/04/22 11:46:10;;;;;;;19.33;9.18;;;17.50;65.00;;;;;;12112955;28;20063;-76
2021/04/22 11:51:58;;;;;;;22.50;8.85;;;17.60;65.90;;;;;;12110548;28;20050;-77
2021/04/22 11:58:04;;;;;;;25.35;7.80;;;17.80;61.70;;;;;;12110180;28;20660;-75
2021/04/22 12:03:50;;;;;;;19.48;8.20;;;17.50;64.70;;;;;;12108706;28;20083;-75
2021/04/22 12:09:39;;;;;;;22.48;8.55;;;17.80;62.00;;;;;;12107939;28;20059;-74
2021/04/22 12:15:26;;;;;;;17.58;6.88;;;17.80;60.10;;;;;;12105745;28;20136;-74
2021/04/22 12:21:14;;;;;;;15.13;6.35;;;17.90;59.40;;;;;;12108935;28;20055;-75
2021/04/22 12:27:01;;;;;;;14.27;6.18;;;17.80;60.50;;;;;;12098576;28;20085;-75
2021/04/22 12:32:50;;;;;;;13.20;5.60;;;18.30;60.30;;;;;;12101526;28;20074;-76
2021/04/22 12:38:37;;;;;;;15.63;5.85;;;18.60;59.20;;;;;;12106624;28;20052;-74
2021/04/22 12:44:23;;;;;;;16.95;5.57;;;18.80;58.70;;;;;;12102063;28;20048;-75
2021/04/22 12:50:13;;;;;;;13.65;5.50;;;19.00;58.60;;;;;;12113988;28;20051;-75
2021/04/22 12:56:03;;;;;;;15.45;5.22;;;19.10;57.30;;;;;;12104414;28;20055;-75
2021/04/22 13:01:50;;;;;;;13.57;5.07;;;19.30;57.20;;;;;;12107020;28;20542;-75
2021/04/22 13:07:40;;;;;;;11.55;4.78;;;19.50;55.80;;;;;;12112999;28;20043;-75
2021/04/22 13:13:28;;;;;;;26.02;5.22;;;19.60;55.40;;;;;;12111712;28;20036;-75
2021/04/22 13:19:19;;;;;;;18.58;5.35;;;19.70;54.70;;;;;;12102548;28;20511;-74
2021/04/22 13:25:09;;;;;;;17.70;5.13;;;19.60;52.80;;;;;;12105291;28;20048;-75
2021/04/22 13:30:55;;;;;;;11.30;4.38;;;19.40;53.80;;;;;;12110793;28;20051;-76
2021/04/22 13:36:44;;;;;;;15.85;6.53;;;19.50;53.70;;;;;;12117215;28;20212;-74
2021/04/22 13:42:32;;;;;;;17.10;5.38;;;19.70;52.70;;;;;;12115743;28;20044;-76
2021/04/22 13:48:20;;;;;;;11.68;4.40;;;19.80;51.20;;;;;;12102492;28;20771;-76
2021/04/22 13:54:08;;;;;;;10.00;4.15;;;19.90;49.50;;;;;;12112056;28;20051;-75
2021/04/22 14:00:09;;;;;;;11.98;4.80;;;19.80;49.60;;;;;;12118738;28;20052;-75
2021/04/22 14:05:55;;;;;;;10.82;4.43;;;19.90;49.40;;;;;;12117696;28;20040;-74
2021/04/22 14:11:43;;;;;;;109.07;65.45;;;20.10;48.30;;;;;;12117399;28;20048;-74
2021/04/22 14:17:30;;;;;;;15.32;4.60;;;20.20;48.10;;;;;;12111253;28;20075;-76
2021/04/22 14:23:17;;;;;;;10.90;4.38;;;20.30;48.30;;;;;;12120709;28;20399;-75
2021/04/22 14:29:05;;;;;;;11.00;4.53;;;20.40;47.90;;;;;;12122050;28;20441;-75
2021/04/22 14:34:53;;;;;;;14.30;4.90;;;20.60;46.80;;;;;;12114622;28;20135;-75
2021/04/22 14:40:39;;;;;;;13.63;4.25;;;20.30;44.40;;;;;;12118499;28;20405;-75
2021/04/22 14:46:26;;;;;;;8.07;4.10;;;20.40;45.90;;;;;;12121782;28;20063;-75
2021/04/22 14:52:13;;;;;;;10.38;4.00;;;20.70;45.00;;;;;;12122615;28;20039;-75
2021/04/22 14:57:59;;;;;;;10.07;3.80;;;20.90;44.80;;;;;;12120679;28;20056;-76
2021/04/22 15:03:46;;;;;;;13.32;4.05;;;20.90;43.40;;;;;;12116736;28;20039;-76
2021/04/22 15:09:33;;;;;;;11.80;3.67;;;20.90;41.70;;;;;;12117937;28;20066;-75
2021/04/22 15:15:19;;;;;;;12.35;3.30;;;20.90;41.70;;;;;;12117544;28;20044;-75
2021/04/22 15:21:06;;;;;;;9.88;3.70;;;21.00;40.70;;;;;;12121383;28;20100;-75
2021/04/22 15:26:53;;;;;;;9.18;3.42;;;21.00;40.20;;;;;;12117081;28;20053;-76
2021/04/22 15:32:41;;;;;;;7.03;3.35;;;21.10;39.60;;;;;;12119473;28;20668;-75
2021/04/22 15:38:27;;;;;;;7.43;3.30;;;21.20;40.00;;;;;;12115620;28;20059;-75
2021/04/22 15:44:16;;;;;;;10.43;4.38;;;21.40;40.10;;;;;;12111460;28;20532;-75
2021/04/22 15:50:03;;;;;;;10.23;3.58;;;21.30;38.10;;;;;;12111708;28;20047;-75
2021/04/22 15:55:50;;;;;;;9.10;3.70;;;21.40;37.60;;;;;;12115530;28;20047;-75
2021/04/22 16:01:37;;;;;;;11.57;4.18;;;21.50;36.40;;;;;;12115039;28;20130;-76
2021/04/22 16:07:24;;;;;;;11.77;3.53;;;21.70;37.70;;;;;;12111548;28;20052;-75
2021/04/22 16:13:10;;;;;;;13.23;4.18;;;22.60;37.10;;;;;;12105597;28;20525;-74
2021/04/22 16:18:58;;;;;;;12.57;3.97;;;24.50;33.00;;;;;;12090609;28;20050;-75
2021/04/22 16:24:45;;;;;;;10.98;3.83;;;26.90;32.00;;;;;;12088375;28;20036;-77
2021/04/22 16:30:31;;;;;;;8.43;3.70;;;29.30;30.00;;;;;;12101844;28;20044;-77
2021/04/22 16:36:18;;;;;;;14.02;3.95;;;30.70;27.20;;;;;;12107888;28;20048;-77
2021/04/22 16:42:05;;;;;;;9.70;4.00;;;31.00;26.70;;;;;;12099201;28;20440;-76
2021/04/22 16:47:52;;;;;;;11.80;5.30;;;31.20;25.80;;;;;;12094833;28;20043;-76
2021/04/22 16:53:39;;;;;;;8.38;3.50;;;31.60;26.00;;;;;;12103834;28;20047;-77
2021/04/22 16:59:25;;;;;;;10.43;3.75;;;31.80;25.00;;;;;;12105562;28;20048;-76
2021/04/22 17:05:15;;;;;;;12.73;4.07;;;32.00;25.20;;;;;;12106951;28;20543;-77
2021/04/22 17:11:02;;;;;;;11.88;3.33;;;32.00;25.00;;;;;;12115508;28;20153;-77
2021/04/22 17:16:49;;;;;;;7.63;3.20;;;32.20;25.20;;;;;;12110175;28;20658;-73
2021/04/22 17:22:35;;;;;;;5.40;2.78;;;32.10;25.10;;;;;;12112843;28;20052;-73
2021/04/22 17:28:23;;;;;;;7.15;3.15;;;32.00;24.80;;;;;;12105367;28;20060;-74
2021/04/22 17:34:09;;;;;;;8.52;2.90;;;32.20;24.50;;;;;;12112924;28;20048;-73
2021/04/22 17:39:55;;;;;;;12.93;3.17;;;32.10;25.00;;;;;;12110624;28;20538;-74
2021/04/22 17:45:43;;;;;;;6.45;2.88;;;31.80;25.30;;;;;;12103823;28;20322;-73
2021/04/22 17:51:31;;;;;;;8.88;3.20;;;31.30;25.30;;;;;;12092022;28;20052;-77
2021/04/22 17:57:18;;;;;;;9.95;2.97;;;30.00;25.70;;;;;;12105720;28;20040;-73
2021/04/22 18:03:05;;;;;;;9.82;2.97;;;27.00;27.50;;;;;;12103589;28;20044;-72
2021/04/22 18:08:52;;;;;;;12.32;3.13;;;24.30;29.60;;;;;;12105433;28;20059;-72
2021/04/22 18:14:39;;;;;;;10.88;2.83;;;22.70;31.70;;;;;;12110849;28;20036;-75
2021/04/22 18:20:28;;;;;;;12.32;3.20;;;21.70;33.00;;;;;;12102777;28;20045;-75
2021/04/22 18:26:15;;;;;;;9.00;2.85;;;20.80;34.80;;;;;;12107320;28;20043;-76
2021/04/22 18:32:01;;;;;;;11.75;3.20;;;20.30;35.80;;;;;;12105562;28;20043;-75
2021/04/22 18:37:50;;;;;;;7.65;2.83;;;20.00;36.90;;;;;;12106061;28;20096;-76
2021/04/22 18:43:37;;;;;;;9.32;3.17;;;19.70;38.20;;;;;;12103545;28;20059;-76
2021/04/22 18:49:23;;;;;;;12.05;3.90;;;19.40;39.00;;;;;;12107544;28;20056;-76
2021/04/22 18:55:15;;;;;;;15.10;3.67;;;19.20;40.00;;;;;;12109319;28;20055;-76
2021/04/22 19:01:01;;;;;;;20.73;4.57;;;19.00;40.70;;;;;;12109500;28;20054;-76
2021/04/22 19:06:48;;;;;;;13.52;4.07;;;18.80;41.20;;;;;;12105086;28;20047;-76
2021/04/22 19:12:35;;;;;;;10.73;4.00;;;18.60;42.20;;;;;;12108129;28;20044;-75
2021/04/22 19:18:21;;;;;;;11.55;3.83;;;18.50;42.90;;;;;;12100121;28;20051;-75
2021/04/22 19:24:09;;;;;;;14.00;3.88;;;18.40;43.40;;;;;;12105802;28;20052;-76
2021/04/22 19:29:56;;;;;;;15.00;4.13;;;18.30;43.80;;;;;;12108594;28;20051;-76
2021/04/22 19:35:43;;;;;;;15.18;4.10;;;18.20;44.30;;;;;;12108252;28;20048;-75
2021/04/22 19:41:29;;;;;;;11.63;4.65;;;18.10;44.70;;;;;;12102859;28;20056;-75
2021/04/22 19:47:17;;;;;;;11.70;3.90;;;18.00;45.10;;;;;;12109870;28;20044;-75
2021/04/22 19:53:04;;;;;;;16.27;4.55;;;17.90;45.00;;;;;;12104812;28;20780;-75
2021/04/22 19:58:51;;;;;;;15.85;3.92;;;17.90;45.10;;;;;;12106304;28;20399;-75
2021/04/22 20:04:39;;;;;;;17.55;4.28;;;17.80;45.10;;;;;;12109022;27;20498;-75
2021/04/22 20:10:26;;;;;;;18.75;4.80;;;17.80;45.20;;;;;;12109411;28;20057;-75
2021/04/22 20:16:12;;;;;;;16.58;5.60;;;17.70;45.90;;;;;;12119473;28;20498;-75
2021/04/22 20:21:59;;;;;;;17.77;5.03;;;17.60;45.60;;;;;;12097952;28;20051;-75
2021/04/22 20:27:46;;;;;;;15.20;4.05;;;17.50;46.00;;;;;;12109785;28;20054;-75
2021/04/22 20:33:35;;;;;;;15.40;4.32;;;17.50;46.50;;;;;;12117502;28;20054;-74
2021/04/22 20:39:22;;;;;;;12.00;3.85;;;17.50;46.60;;;;;;12100841;28;20046;-76
2021/04/22 20:45:11;;;;;;;11.38;3.70;;;17.40;46.80;;;;;;12093815;28;20058;-75
2021/04/22 20:50:59;;;;;;;18.35;4.20;;;17.40;46.60;;;;;;12100431;28;20051;-75
2021/04/22 20:56:50;;;;;;;16.35;3.70;;;17.30;46.70;;;;;;12101053;28;20054;-75
2021/04/22 21:02:37;;;;;;;9.15;3.22;;;17.20;47.10;;;;;;12098158;28;20047;-76
2021/04/22 21:08:23;;;;;;;18.33;4.22;;;17.20;47.30;;;;;;12101804;28;20414;-75
2021/04/22 21:14:11;;;;;;;14.70;4.45;;;17.10;47.90;;;;;;12110516;28;20146;-75
2021/04/22 21:19:57;;;;;;;11.75;3.80;;;17.00;48.00;;;;;;12102001;28;20052;-75
2021/04/22 21:25:44;;;;;;;10.77;3.65;;;17.00;48.10;;;;;;12104896;28;20044;-76
2021/04/22 21:31:31;;;;;;;14.95;3.83;;;16.90;48.30;;;;;;12102852;28;20055;-75
2021/04/22 21:37:19;;;;;;;14.63;4.53;;;16.90;48.30;;;;;;12103280;28;20538;-75
2021/04/22 21:43:05;;;;;;;11.10;3.28;;;16.90;48.90;;;;;;12102250;28;20055;-74
2021/04/22 21:48:52;;;;;;;16.02;4.25;;;16.80;48.60;;;;;;12102719;28;20044;-73
2021/04/22 21:54:39;;;;;;;16.33;3.97;;;16.80;48.50;;;;;;12106999;28;20047;-72
2021/04/22 22:00:27;;;;;;;19.35;4.25;;;16.70;48.40;;;;;;12111349;28;20113;-71
2021/04/22 22:06:14;;;;;;;14.98;4.05;;;16.70;48.90;;;;;;12107440;28;20549;-72
2021/04/22 22:12:03;;;;;;;16.58;4.10;;;16.70;48.70;;;;;;12104601;28;20055;-72
2021/04/22 22:17:49;;;;;;;26.95;4.28;;;16.60;49.50;;;;;;12108824;28;20044;-73
2021/04/22 22:23:36;;;;;;;15.20;3.85;;;16.60;49.10;;;;;;12106006;28;20097;-72
2021/04/22 22:29:23;;;;;;;22.15;4.03;;;16.50;49.00;;;;;;12108834;28;20534;-73
2021/04/22 22:35:10;;;;;;;15.65;4.00;;;16.50;49.00;;;;;;12109646;28;20449;-73
2021/04/22 22:41:02;;;;;;;21.50;4.30;;;16.40;49.20;;;;;;12113371;28;20444;-74
2021/04/22 22:46:49;;;;;;;13.30;4.38;;;16.30;49.40;;;;;;12109632;28;20071;-72
2021/04/22 22:52:36;;;;;;;15.23;4.45;;;16.30;49.80;;;;;;12106520;28;20052;-73
2021/04/22 22:58:27;;;;;;;17.92;4.22;;;16.20;50.00;;;;;;12109749;28;20047;-73
2021/04/22 23:04:14;;;;;;;14.15;3.90;;;16.20;50.10;;;;;;12107611;28;20045;-73
2021/04/22 23:10:00;;;;;;;11.35;4.45;;;16.10;50.30;;;;;;12111613;28;20059;-74
2021/04/22 23:15:48;;;;;;;19.02;4.90;;;16.00;50.50;;;;;;12102074;28;20040;-74
2021/04/22 23:21:34;;;;;;;16.48;4.93;;;15.90;50.70;;;;;;12101400;28;20051;-74
2021/04/22 23:27:20;;;;;;;16.13;4.43;;;15.90;50.80;;;;;;12104684;28;20044;-75
2021/04/22 23:33:10;;;;;;;15.27;4.78;;;15.90;50.90;;;;;;12111798;28;20067;-74
2021/04/22 23:38:56;;;;;;;18.02;4.63;;;15.90;51.00;;;;;;12109483;28;20652;-75
2021/04/22 23:44:42;;;;;;;17.45;4.53;;;15.90;51.00;;;;;;12107100;28;20529;-73
2021/04/22 23:50:30;;;;;;;21.60;7.38;;;15.70;51.40;;;;;;12106782;28;20076;-73
2021/04/22 23:56:17;;;;;;;19.55;6.72;;;15.70;51.60;;;;;;12112654;28;20043;-72
